• Join FlightAware (Why Join?)
  • Login
  • US Flag 
08:03PM EST


 

Airport Tracker/Info


-or-


 

Live Flight TrackerFlight Track Log ✈ CSN6337 ✈ 14-Sep-2013 ✈ ZYTL / DLC - ZYMD / MDG

Flight Track Log - Related Links

Times and Time Zones

All times are in EDT time to prevent confusion due to time zone crossing. See the CSN6337 flight status page for this flight to view local times or setup timezone preferences in your user account.

Time Position Orientation Groundspeed Altitude Reporting Facility
EDT Latitude Longitude Course Direction KTS MPH feet Rate Location/Type
02:21AM 39.0580 121.6557 45° Northeast  Level Estimated
02:22AM 39.1503 121.7731 45° Northeast  Level Estimated
02:23AM 39.2425 121.8908 45° Northeast  Level Estimated
02:24AM 39.3345 122.0088 45° Northeast  Level Estimated
02:25AM 39.4264 122.1272 45° Northeast  Level Estimated
02:26AM 39.5182 122.2458 45° Northeast  Level Estimated
02:27AM 39.6098 122.3647 45° Northeast  Level Estimated
02:28AM 39.7014 122.4840 45° Northeast  Level Estimated
02:29AM 39.7928 122.6036 45° Northeast  Level Estimated
02:30AM 39.8841 122.7235 45° Northeast  Level Estimated
02:31AM 39.9753 122.8437 45° Northeast  Level Estimated
02:32AM 40.0663 122.9643 45° Northeast  Level Estimated
02:33AM 40.1572 123.0851 45° Northeast  Level Estimated
02:34AM 40.2480 123.2063 46° Northeast  Level Estimated
02:35AM 40.3387 123.3278 46° Northeast  Level Estimated
02:36AM 40.4292 123.4497 46° Northeast  Level Estimated
02:37AM 40.5196 123.5719 46° Northeast  Level Estimated
02:38AM 40.6099 123.6944 46° Northeast  Level Estimated
02:39AM 40.7001 123.8172 46° Northeast  Level Estimated
02:40AM 40.7901 123.9403 46° Northeast  Level Estimated
02:41AM 40.8800 124.0638 46° Northeast  Level Estimated
02:42AM 40.9698 124.1877 46° Northeast  Level Estimated
02:43AM 41.0594 124.3118 46° Northeast  Level Estimated
02:44AM 41.1489 124.4363 46° Northeast  Level Estimated
02:45AM 41.2383 124.5612 46° Northeast  Level Estimated
02:46AM 41.3275 124.6864 46° Northeast  Level Estimated
02:47AM 41.4166 124.8119 47° Northeast  Level Estimated
02:48AM 41.5055 124.9378 47° Northeast  Level Estimated
02:49AM 41.5944 125.0640 47° Northeast  Level Estimated
02:50AM 41.6830 125.1906 47° Northeast  Level Estimated
02:51AM 41.7716 125.3175 47° Northeast  Level Estimated
02:52AM 41.8600 125.4448 47° Northeast  Level Estimated
02:53AM 41.9482 125.5724 47° Northeast  Level Estimated
02:54AM 42.0364 125.7004 47° Northeast  Level Estimated
02:55AM 42.1243 125.8287 47° Northeast  Level Estimated
02:56AM 42.2122 125.9574 47° Northeast  Level Estimated
02:57AM 42.2998 126.0865 47° Northeast  Level Estimated
02:58AM 42.3874 126.2159 47° Northeast  Level Estimated
02:59AM 42.4748 126.3457 48° Northeast  Level Estimated
03:00AM 42.5620 126.4758 48° Northeast  Level Estimated
03:01AM 42.6491 126.6063 48° Northeast  Level Estimated
03:02AM 42.7361 126.7372 48° Northeast  Level Estimated
03:03AM 42.8229 126.8684 48° Northeast  Level Estimated
03:04AM 42.9095 127.0000 48° Northeast  Level Estimated
03:05AM 42.9960 127.1320 48° Northeast  Level Estimated
03:06AM 43.0824 127.2643 48° Northeast  Level Estimated
03:07AM 43.1686 127.3970 48° Northeast  Level Estimated
03:08AM 43.2546 127.5301 48° Northeast  Level Estimated
03:09AM 43.3405 127.6636 48° Northeast  Level Estimated
03:10AM 43.4262 127.7974 49° Northeast  Level Estimated
03:11AM 43.5118 127.9316 49° Northeast  Level Estimated
03:12AM 43.5972 128.0662 49° Northeast  Level Estimated
03:13AM 43.6825 128.2012 49° Northeast  Level Estimated
03:14AM 43.7676 128.3366 49° Northeast  Level Estimated
03:15AM 43.8525 128.4723 49° Northeast  Level Estimated
03:16AM 43.9373 128.6084 49° Northeast  Level Estimated
03:17AM 44.0219 128.7450 49° Northeast  Level Estimated
03:18AM 44.1063 128.8819 49° Northeast  Level Estimated
03:19AM 44.1906 129.0192 49° Northeast  Level Estimated
03:20AM 44.2748 129.1569 50° Northeast  Level Estimated
03:21AM 44.3587 129.2950 50° Northeast  Level Estimated
03:22AM 44.4425 129.4335 50° Northeast  Level Estimated
03:23AM 44.5241 129.5690 50° Northeast  Level Estimated
03:24AM 44.5241 129.5690 35° Northeast  Level Estimated
03:25AM 44.5241 129.5690 35° Northeast  Level Estimated
03:26AM 44.5241 129.5690 35° Northeast  Level Estimated
03:27AM 44.5241 129.5690 35° Northeast  Level Estimated
03:28AM 44.5241 129.5690 35° Northeast  Level Estimated
03:29AM 44.5241 129.5690 35° Northeast  Level Estimated
03:30AM 44.5241 129.5690 35° Northeast  Level Estimated
03:31AM 44.5241 129.5690 35° Northeast  Level Estimated
03:32AM 44.5241 129.5690 35° Northeast  Level Estimated
03:33AM 44.5241 129.5690 35° Northeast  Level Estimated
03:34AM 44.5241 129.5690 35° Northeast  Level Estimated
03:35AM 44.5241 129.5690 35° Northeast  Level Estimated
03:36AM 44.5241 129.5690 35° Northeast  Level Estimated
03:37AM 44.5241 129.5690 35° Northeast  Level Estimated
03:38AM 44.5241 129.5690 35° Northeast  Level Estimated
03:39AM 44.5241 129.5690 35° Northeast  Level Estimated